Etusivu
METAR-TAF:

METAR-TAF

Lentoasemat :

Antwerpenin kansainvälinen lentoasema

Antwerpen, Belgia

Leveyspiiri: 51-12N, Pituuspiiri: 004-28E, korkeus merenpinnasta: 12 m

Tämänhetkinen sää

Tämä raportti tehtiin 27 minuuttia sitten, kello 10.20 UTC
Tuuli 10 kn etelästä/lounaasta, vaihdellen etelän ja lännen/lounaan välillä
Lämpötila 5°C
Kosteus 87%
Ilmanpaine 1000 hPa
Näkyvyys 10 km tai enemmän
Muutamia pilviä 1200 ft:n korkeudessa

METAR: EBAW 121020Z 21010KT 180V240 9999 FEW012 05/03 Q1000 NOSIG

Aika: 11:47 (10:47 UTC)

Sääennuste

Tämä raportti tehtiin 2 tuntia ja 29 minuuttia sitten, kello 08.18 UTC
Ennuste voimassa 12. päivästä klo 09 UTC - 12. päivään klo 18 UTC
Tuuli 10 kn lounaasta
Näkyvyys 10 km tai enemmän
Muutamia pilviä 2000 ft:n korkeudessa, Kasvava cumulus-pilvi.

TAF: EBAW 120818Z 1209/1218 22010KT 9999 FEW020TCU

Säähavainnot ja -ennusteet yli 4000 lentoasemalta (METAR- ja TAF-raportit).

Käytössä olevat sääasemat on merkitty karttaan keltaisilla ja punaisilla pisteillä.

Aseta hiiri pisteen päälle nähdäksesi sääaseman nimen.

Klikkaa sitten nähdäksesi säähavainnot ja -ennusteet.

Kartan vaihtaminen: klikkaa mustalla rastilla varustettuja vihreitä pisteitä, niin voit zoomata sisään; viivalla varustettua vihreää pistettä, niin voit zoomata ulos tai vihreitä nuolia, niin pääset viereisille kartoille.


METAR-TAF: